Aviation Digital Data Service (ADDS)

Output produced by TAFs form (0750 UTC 23 April 2018)
found at http://aviationweather.gov/adds/tafs/
 
METAR text: RJSS 230700Z 06012KT 9999 FEW010 BKN015 BKN020 12/09 Q1022
Conditions at: RJSS (SENDAI AIRPORT , JP) observed 0700 UTC 23 April 2018
Temperature: 12.0°C (54°F)
Dewpoint: 9.0°C (48°F) [RH = 82%]
Pressure (altimeter): 30.18 inches Hg (1022.0 mb)
Winds: from the ENE (60 degrees) at 14 MPH (12 knots; 6.2 m/s)
Visibility: 6 or more miles (10+ km)
Ceiling: 1500 feet AGL
Clouds: few clouds at 1000 feet AGL
broken clouds at 1500 feet AGL
broken clouds at 2000 feet AGL
Weather: no significant weather observed at this time

Forecast for: RJSS (SENDAI AIRPORT , JP)
Text: TAF RJSS 230512Z 2306/2412 05010KT 8000 FEW008 BKN010 BKN015
Forecast period: 0600 to 1000 UTC 23 April 2018
Forecast type: FROM: standard forecast or significant change
Winds: from the NE (50 degrees) at 12 MPH (10 knots; 5.2 m/s)
Visibility: 5 miles (8 km)
Ceiling: 1000 feet AGL
Clouds: few clouds at 800 feet AGL
broken clouds at 1000 feet AGL
broken clouds at 1500 feet AGL
Weather: no significant weather forecast for this period
Forecast for: RJSS (SENDAI AIRPORT , JP)
Text: TAF RJSS 230512Z 2306/2412 05010KT 8000 FEW008 BKN010 BKN015
Forecast period: 0600 to 1000 UTC 23 April 2018
Forecast type: FROM: standard forecast or significant change
Winds: from the NE (50 degrees) at 12 MPH (10 knots; 5.2 m/s)
Visibility: 5 miles (8 km)
Ceiling: 1000 feet AGL
Clouds: few clouds at 800 feet AGL
broken clouds at 1000 feet AGL
broken clouds at 1500 feet AGL
Weather: no significant weather forecast for this period
Forecast for: RJSS (SENDAI AIRPORT , JP)
Text: TAF RJSS 230512Z 2306/2412 05010KT 8000 FEW008 BKN010 BKN015
Forecast period: 0600 to 1000 UTC 23 April 2018
Forecast type: TEMPORARY: The following changes expected for less than half the time period
Ceiling: 800 feet AGL
Clouds: few clouds at 500 feet AGL
broken clouds at 800 feet AGL
broken clouds at 1500 feet AGL
Weather: no significant weather forecast for this period
Forecast for: RJSS (SENDAI AIRPORT , JP)
Text: TAF RJSS 230512Z 2306/2412 05010KT 8000 FEW008 BKN010 BKN015
Forecast period: 0600 to 1000 UTC 23 April 2018
Forecast type: TEMPORARY: The following changes expected for less than half the time period
Ceiling: 800 feet AGL
Clouds: few clouds at 500 feet AGL
broken clouds at 800 feet AGL
broken clouds at 1500 feet AGL
Weather: no significant weather forecast for this period
Forecast for: RJSS (SENDAI AIRPORT , JP)
Text: TAF RJSS 230512Z 2306/2412 05010KT 8000 FEW008 BKN010 BKN015
Forecast period: 1000 UTC 23 April 2018 to 0000 UTC 24 April 2018
Forecast type: BECOMING: Conditions expected to become as follows by 1200 UTC 23 April 2018
Winds: from the NE (50 degrees) at 12 MPH (10 knots; 5.2 m/s)
Visibility: 2.49 miles (4.01 km)
Ceiling: 800 feet AGL
Clouds: few clouds at 500 feet AGL
broken clouds at 800 feet AGL
broken clouds at 1500 feet AGL
Weather: -RA BR  (light rain, mist)
Forecast for: RJSS (SENDAI AIRPORT , JP)
Text: TAF RJSS 230512Z 2306/2412 05010KT 8000 FEW008 BKN010 BKN015
Forecast period: 1000 UTC 23 April 2018 to 0000 UTC 24 April 2018
Forecast type: BECOMING: Conditions expected to become as follows by 1200 UTC 23 April 2018
Winds: from the NE (50 degrees) at 12 MPH (10 knots; 5.2 m/s)
Visibility: 2.49 miles (4.01 km)
Ceiling: 800 feet AGL
Clouds: few clouds at 500 feet AGL
broken clouds at 800 feet AGL
broken clouds at 1500 feet AGL
Weather: -RA BR  (light rain, mist)
Forecast for: RJSS (SENDAI AIRPORT , JP)
Text: TAF RJSS 230512Z 2306/2412 05010KT 8000 FEW008 BKN010 BKN015
Forecast period: 1500 to 2100 UTC 23 April 2018
Forecast type: TEMPORARY: The following changes expected for less than half the time period
Visibility: 1.86 miles (2.99 km)
Ceiling: 500 feet AGL
Clouds: few clouds at 300 feet AGL
broken clouds at 500 feet AGL
broken clouds at 1000 feet AGL
Weather: RA BR  (rain, mist)
Forecast for: RJSS (SENDAI AIRPORT , JP)
Text: TAF RJSS 230512Z 2306/2412 05010KT 8000 FEW008 BKN010 BKN015
Forecast period: 1500 to 2100 UTC 23 April 2018
Forecast type: TEMPORARY: The following changes expected for less than half the time period
Visibility: 1.86 miles (2.99 km)
Ceiling: 500 feet AGL
Clouds: few clouds at 300 feet AGL
broken clouds at 500 feet AGL
broken clouds at 1000 feet AGL
Weather: RA BR  (rain, mist)
Forecast for: RJSS (SENDAI AIRPORT , JP)
Text: TAF RJSS 230512Z 2306/2412 05010KT 8000 FEW008 BKN010 BKN015
Forecast period: 0000 to 1200 UTC 24 April 2018
Forecast type: BECOMING: Conditions expected to become as follows by 0300 UTC 24 April 2018
Winds: from the ESE (120 degrees) at 6 MPH (5 knots; 2.6 m/s)
Visibility: 2.49 miles (4.01 km)
Ceiling: 800 feet AGL
Clouds: few clouds at 500 feet AGL
broken clouds at 800 feet AGL
broken clouds at 1500 feet AGL
Weather: -RA BR  (light rain, mist)
Forecast for: RJSS (SENDAI AIRPORT , JP)
Text: TAF RJSS 230512Z 2306/2412 05010KT 8000 FEW008 BKN010 BKN015
Forecast period: 0000 to 1200 UTC 24 April 2018
Forecast type: BECOMING: Conditions expected to become as follows by 0300 UTC 24 April 2018
Winds: from the ESE (120 degrees) at 6 MPH (5 knots; 2.6 m/s)
Visibility: 2.49 miles (4.01 km)
Ceiling: 800 feet AGL
Clouds: few clouds at 500 feet AGL
broken clouds at 800 feet AGL
broken clouds at 1500 feet AGL
Weather: -RA BR  (light rain, mist)